Kezdőlap
METAR-TAF:

METAR-TAF

Repülőterek :

Des Moines, Iowa, Amerikai Egyesült Államok

földrajzi szélesség: 41-32-16N, földrajzi hosszúság: 093-39-58W, magasság: 291 m

Jelenlegi meteorológiai megfigyelések

A jelentés 57 perccel ezelõtt készült, 16:54 UTC
Északnyugati szél 6 kt
Hőmérséklet 5°C
Páratartalom 52%
Légköri nyomás 1016 hPa
Látótávolság: 16.1 km
Derült ég

METAR: KDSM 041654Z 32006KT 10SM CLR 05/M04 A3001 RMK AO2 SLP171 T00501039

Idő: 11:51 (17:51 UTC)

Előrejelzés

A jelentés 30 perccel ezelõtt készült, 17:21 UTC
Az előrejelzés 04-én 18 óra UTC és 05-én 18 óra UTC között érvényes
Északnyugati szél 6 kt
Látótávolság: 10 km
Derült ég
05-én 0100 órától UTC szerint
Észak-északnyugati szél 5 kt
Látótávolság: 10 km
Derült ég

TAF: KDSM 041721Z 0418/0518 32006KT P6SM SKC FM050100 33005KT P6SM SKC

Meteorológiai megfigyelések és előrejelzések több, mint 4000 repülőtéren (METAR és TAF jelentéseket).

A térképen piros és sárga pontok jelzik az elérhető meteorológiai állomásokat.

Mozgassa az egeret a pont fölött, hogy megjelenjen az állomás neve.

Azután kattintson az időjárási megfigyelések és előrejelzések megtekintéséhez.

A térkép megváltoztatása: kattintson a fekete keresztel jelölt zöld gombra ráközelítéshez, a vonallal jelölt zöld gombra távolításhoz, vagy a zöld nyilakra a szomszédos térképek eléréséhez.


METAR-TAF: